createdAt,value
2023-02-26T00:00:15.252Z,12.45
2023-02-26T00:02:43.073Z,12.43
2023-02-26T00:05:10.321Z,12.38
2023-02-26T00:07:37.791Z,12.40
2023-02-26T00:10:10.111Z,12.34
2023-02-26T00:12:37.694Z,12.32
2023-02-26T00:15:05.908Z,12.28
2023-02-26T00:17:41.551Z,12.25
2023-02-26T00:20:09.279Z,12.25
2023-02-26T00:22:36.323Z,12.24
2023-02-26T00:25:02.987Z,12.18
2023-02-26T00:27:30.045Z,12.20
2023-02-26T00:29:57.108Z,12.14
2023-02-26T00:32:24.139Z,12.13
2023-02-26T00:34:51.380Z,12.11
2023-02-26T00:37:26.147Z,12.05
2023-02-26T00:40:01.374Z,12.02
2023-02-26T00:42:28.296Z,12.02
2023-02-26T00:44:55.209Z,11.99
2023-02-26T00:47:52.079Z,11.99
2023-02-26T00:50:21.155Z,11.96
2023-02-26T00:53:00.193Z,11.94
2023-02-26T00:55:28.436Z,11.89
2023-02-26T00:57:55.708Z,11.85
2023-02-26T01:00:23.625Z,11.85
2023-02-26T01:02:51.084Z,11.85
2023-02-26T01:05:19.806Z,11.83
2023-02-26T01:08:12.687Z,11.79
2023-02-26T01:10:40.041Z,11.77
2023-02-26T01:13:07.360Z,11.74
2023-02-26T01:15:34.402Z,11.72
2023-02-26T01:18:14.059Z,11.73
2023-02-26T01:20:47.865Z,11.70
2023-02-26T01:23:18.659Z,11.68
2023-02-26T01:25:58.852Z,11.65
2023-02-26T01:28:26.814Z,11.65
2023-02-26T01:30:59.537Z,11.64
2023-02-26T01:33:30.032Z,11.62
2023-02-26T01:36:16.100Z,11.59
2023-02-26T01:38:52.864Z,11.59
2023-02-26T01:41:43.786Z,11.57
2023-02-26T01:44:31.681Z,11.56
2023-02-26T01:47:10.674Z,11.55
2023-02-26T01:49:38.514Z,11.53
2023-02-26T01:52:07.536Z,11.51
2023-02-26T01:54:38.678Z,11.47
2023-02-26T01:57:11.097Z,11.46
2023-02-26T01:59:42.430Z,11.46
2023-02-26T02:02:11.878Z,11.44
2023-02-26T02:04:39.669Z,11.41
2023-02-26T02:07:06.586Z,11.41
2023-02-26T02:09:33.874Z,11.40
2023-02-26T02:12:31.313Z,11.39
2023-02-26T02:15:30.912Z,11.36
2023-02-26T02:18:31.526Z,11.33
2023-02-26T02:21:07.307Z,11.29
2023-02-26T02:23:47.542Z,11.26
2023-02-26T02:26:20.187Z,11.29
2023-02-26T02:29:08.386Z,11.30
2023-02-26T02:31:43.870Z,11.22
2023-02-26T02:34:19.516Z,11.22
2023-02-26T02:37:01.306Z,11.23
2023-02-26T02:40:12.937Z,11.23
2023-02-26T02:42:46.400Z,11.17
2023-02-26T02:45:47.725Z,11.18
2023-02-26T02:48:22.355Z,11.15
2023-02-26T02:50:55.654Z,11.16
2023-02-26T02:53:49.740Z,11.19
2023-02-26T02:56:46.875Z,11.15
2023-02-26T02:59:32.087Z,11.11
2023-02-26T03:02:07.678Z,11.09
2023-02-26T03:04:34.886Z,11.09
2023-02-26T03:07:04.313Z,11.06
2023-02-26T03:09:31.056Z,11.09
2023-02-26T03:11:57.754Z,11.11
2023-02-26T03:14:26.255Z,11.09
2023-02-26T03:17:10.658Z,11.09
2023-02-26T03:20:09.085Z,11.08
2023-02-26T03:23:03.595Z,11.03
2023-02-26T03:25:33.329Z,11.06
2023-02-26T03:28:10.177Z,11.04
2023-02-26T03:30:55.249Z,11.02
2023-02-26T03:33:41.149Z,11.02
2023-02-26T03:36:28.742Z,11.01
2023-02-26T03:39:34.493Z,11.01
2023-02-26T03:42:12.736Z,10.99
2023-02-26T03:45:16.763Z,10.99
2023-02-26T03:47:48.806Z,10.97
2023-02-26T03:50:20.235Z,10.97
2023-02-26T03:52:54.725Z,10.95
2023-02-26T03:55:55.726Z,10.94
2023-02-26T03:58:40.860Z,10.92
2023-02-26T04:01:45.692Z,10.92
2023-02-26T04:04:23.929Z,10.91
2023-02-26T04:06:53.644Z,10.88
2023-02-26T04:09:21.495Z,10.88
2023-02-26T04:11:51.387Z,10.88
2023-02-26T04:14:18.880Z,10.85
2023-02-26T04:16:46.375Z,10.84
2023-02-26T04:19:14.257Z,10.84
2023-02-26T04:21:42.477Z,10.84
2023-02-26T04:24:11.347Z,10.80
2023-02-26T04:26:38.070Z,10.79
2023-02-26T04:29:04.849Z,10.77
2023-02-26T04:31:31.948Z,10.76
2023-02-26T04:34:02.515Z,10.73
2023-02-26T04:36:29.460Z,10.72
2023-02-26T04:38:58.351Z,10.72
2023-02-26T04:41:24.980Z,10.73
2023-02-26T04:43:51.977Z,10.70
2023-02-26T04:46:26.158Z,10.68
2023-02-26T04:48:53.794Z,10.69
2023-02-26T04:51:20.704Z,10.66
2023-02-26T04:53:50.282Z,10.64
2023-02-26T04:56:17.151Z,10.64
2023-02-26T04:58:45.221Z,10.63
2023-02-26T05:01:17.448Z,10.61
2023-02-26T05:03:44.243Z,10.59
2023-02-26T05:06:11.307Z,10.58
2023-02-26T05:08:42.196Z,10.59
2023-02-26T05:11:10.589Z,10.58
2023-02-26T05:13:37.366Z,10.55
2023-02-26T05:16:04.534Z,10.54
2023-02-26T05:18:32.493Z,10.53
2023-02-26T05:20:59.855Z,10.50
2023-02-26T05:23:27.268Z,10.49
2023-02-26T05:25:57.852Z,10.48
2023-02-26T05:28:25.744Z,10.49
2023-02-26T05:30:52.869Z,10.49
2023-02-26T05:33:20.826Z,10.45
2023-02-26T05:35:48.224Z,10.44
2023-02-26T05:38:15.160Z,10.44
2023-02-26T05:40:41.875Z,10.44
2023-02-26T05:43:09.055Z,10.46
2023-02-26T05:45:36.115Z,10.42
2023-02-26T05:48:03.116Z,10.43
2023-02-26T05:50:30.575Z,10.40
2023-02-26T05:52:58.022Z,10.38
2023-02-26T05:55:25.021Z,10.36
2023-02-26T05:57:51.708Z,10.35
2023-02-26T06:00:18.863Z,10.39
2023-02-26T06:02:46.015Z,10.34
2023-02-26T06:05:12.813Z,10.30
2023-02-26T06:07:39.556Z,10.33
2023-02-26T06:10:09.210Z,10.30
2023-02-26T06:12:36.601Z,10.31
2023-02-26T06:15:04.922Z,10.29
2023-02-26T06:17:31.746Z,10.29
2023-02-26T06:19:58.655Z,10.26
2023-02-26T06:22:25.551Z,10.27
2023-02-26T06:24:52.257Z,10.35
2023-02-26T06:27:18.967Z,10.31
2023-02-26T06:29:45.659Z,10.24
2023-02-26T06:32:12.508Z,10.22
2023-02-26T06:34:39.485Z,10.20
2023-02-26T06:37:06.445Z,10.19
2023-02-26T06:39:33.217Z,10.18
2023-02-26T06:41:59.953Z,10.14
2023-02-26T06:44:26.764Z,10.13
2023-02-26T06:46:53.482Z,10.13
2023-02-26T06:49:20.296Z,10.12
2023-02-26T06:51:46.957Z,10.10
2023-02-26T06:54:13.692Z,10.07
2023-02-26T06:56:40.324Z,10.08
2023-02-26T06:59:06.904Z,10.06
2023-02-26T07:01:33.837Z,10.03
2023-02-26T07:04:00.656Z,10.08
2023-02-26T07:06:28.248Z,10.06
2023-02-26T07:08:55.832Z,10.04
2023-02-26T07:11:22.672Z,10.02
2023-02-26T07:13:51.487Z,10.00
2023-02-26T07:16:18.643Z,10.00
2023-02-26T07:18:45.445Z,9.98
2023-02-26T07:21:12.234Z,9.96
2023-02-26T07:23:38.990Z,9.92
2023-02-26T07:26:05.616Z,9.98
2023-02-26T07:28:32.206Z,9.93
2023-02-26T07:30:59.172Z,9.90
2023-02-26T07:33:28.419Z,9.92
2023-02-26T07:35:55.361Z,9.93
2023-02-26T07:38:22.066Z,9.92
2023-02-26T07:40:49.151Z,9.91
2023-02-26T07:43:15.843Z,9.89
2023-02-26T07:45:42.669Z,9.86
2023-02-26T07:48:09.399Z,9.89
2023-02-26T07:50:36.162Z,9.88
2023-02-26T07:53:03.282Z,9.88
2023-02-26T07:55:30.232Z,9.84
2023-02-26T07:57:56.990Z,9.84
2023-02-26T08:00:23.846Z,9.84
2023-02-26T08:02:50.638Z,9.80
2023-02-26T08:05:17.549Z,9.80
2023-02-26T08:07:44.250Z,9.80
2023-02-26T08:10:11.968Z,9.77
2023-02-26T08:12:38.838Z,9.76
2023-02-26T08:15:06.486Z,9.76
2023-02-26T08:17:33.235Z,9.76
2023-02-26T08:20:00.012Z,9.74
2023-02-26T08:22:27.023Z,9.72
2023-02-26T08:24:53.848Z,9.73
2023-02-26T08:27:20.456Z,9.93
2023-02-26T08:29:47.227Z,10.51
2023-02-26T08:32:15.744Z,10.91
2023-02-26T08:34:42.743Z,11.11
2023-02-26T08:37:11.735Z,11.34
2023-02-26T08:39:39.402Z,11.51
2023-02-26T08:42:07.321Z,11.63
2023-02-26T08:44:34.389Z,11.86
2023-02-26T08:47:01.275Z,12.03
2023-02-26T08:49:28.038Z,12.14
2023-02-26T08:51:54.697Z,12.25
2023-02-26T08:54:21.362Z,12.41
2023-02-26T08:56:48.167Z,12.52
2023-02-26T08:59:15.212Z,12.12
2023-02-26T09:01:41.942Z,11.84
2023-02-26T09:04:08.815Z,11.73
2023-02-26T09:06:35.817Z,11.73
2023-02-26T09:09:02.626Z,11.75
2023-02-26T09:11:30.806Z,11.83
2023-02-26T09:13:59.093Z,12.09
2023-02-26T09:16:27.103Z,12.18
2023-02-26T09:18:56.150Z,12.31
2023-02-26T09:21:23.406Z,12.43
2023-02-26T09:23:50.308Z,12.52
2023-02-26T09:26:17.153Z,12.59
2023-02-26T09:28:43.979Z,12.69
2023-02-26T09:31:10.740Z,12.73
2023-02-26T09:33:37.464Z,12.75
2023-02-26T09:36:04.696Z,12.78
2023-02-26T09:38:31.403Z,12.69
2023-02-26T09:41:01.352Z,12.61
2023-02-26T09:43:37.015Z,12.59
2023-02-26T09:46:11.553Z,12.61
2023-02-26T09:48:39.700Z,12.61
2023-02-26T09:51:12.751Z,12.59
2023-02-26T09:53:41.316Z,12.56
2023-02-26T09:56:21.639Z,12.55
2023-02-26T09:58:49.497Z,12.55
2023-02-26T10:01:45.119Z,12.54
2023-02-26T10:04:20.591Z,12.52
2023-02-26T10:06:59.324Z,12.48
2023-02-26T10:09:53.361Z,12.49
2023-02-26T10:12:24.679Z,12.49
2023-02-26T10:15:00.584Z,12.54
2023-02-26T10:17:46.313Z,12.55
2023-02-26T10:20:21.946Z,12.55
2023-02-26T10:23:22.240Z,12.61
2023-02-26T10:26:05.131Z,12.63
2023-02-26T10:28:55.761Z,12.61
2023-02-26T10:31:30.764Z,12.82
2023-02-26T10:34:07.346Z,12.95
2023-02-26T10:36:53.498Z,12.98
2023-02-26T10:39:35.397Z,13.06
2023-02-26T10:42:17.379Z,13.05
2023-02-26T10:45:09.903Z,12.91
2023-02-26T10:48:09.239Z,12.94
2023-02-26T10:50:36.163Z,12.98
2023-02-26T10:53:04.146Z,12.93
2023-02-26T10:55:47.238Z,12.88
2023-02-26T10:58:20.887Z,12.91
2023-02-26T11:00:50.943Z,12.94
2023-02-26T11:03:34.403Z,12.96
2023-02-26T11:06:03.911Z,12.94
2023-02-26T11:08:46.111Z,12.89
2023-02-26T11:11:45.680Z,12.96
2023-02-26T11:14:14.180Z,12.88
2023-02-26T11:16:50.355Z,12.87
2023-02-26T11:19:20.147Z,12.98
2023-02-26T11:21:47.958Z,12.91
2023-02-26T11:24:26.724Z,13.01
2023-02-26T11:26:55.419Z,13.03
2023-02-26T11:29:24.854Z,13.08
2023-02-26T11:31:52.591Z,13.13
2023-02-26T11:34:23.898Z,13.22
2023-02-26T11:36:53.185Z,13.25
2023-02-26T11:39:24.379Z,13.19
2023-02-26T11:41:55.830Z,13.18
2023-02-26T11:44:37.363Z,13.25
2023-02-26T11:47:26.803Z,13.37
2023-02-26T11:49:55.035Z,13.38
2023-02-26T11:52:42.150Z,13.40
2023-02-26T11:55:27.591Z,13.36
2023-02-26T11:57:56.105Z,13.30
2023-02-26T12:00:35.456Z,13.26
2023-02-26T12:03:08.399Z,13.30
2023-02-26T12:05:36.672Z,13.34
2023-02-26T12:08:14.223Z,13.31
2023-02-26T12:11:09.265Z,13.24
2023-02-26T12:13:57.323Z,13.25
2023-02-26T12:16:27.663Z,13.27
2023-02-26T12:19:17.625Z,13.29
2023-02-26T12:22:07.067Z,13.28
2023-02-26T12:24:42.218Z,13.31
2023-02-26T12:27:14.310Z,13.27
2023-02-26T12:30:01.334Z,13.28
2023-02-26T12:32:28.245Z,13.29
2023-02-26T12:35:12.490Z,13.29
2023-02-26T12:37:48.780Z,13.31
2023-02-26T12:40:37.274Z,13.31
2023-02-26T12:43:36.309Z,13.25
2023-02-26T12:46:08.604Z,13.22
2023-02-26T12:48:59.915Z,13.21
2023-02-26T12:51:47.271Z,13.24
2023-02-26T12:54:47.410Z,13.20
2023-02-26T12:57:32.791Z,13.23
2023-02-26T13:00:12.790Z,13.26
2023-02-26T13:02:51.383Z,13.27
2023-02-26T13:05:42.730Z,13.27
2023-02-26T13:08:22.365Z,13.40
2023-02-26T13:11:07.411Z,13.35
2023-02-26T13:13:52.586Z,13.38
2023-02-26T13:16:40.853Z,13.41
2023-02-26T13:19:26.438Z,13.52
2023-02-26T13:22:16.158Z,13.62
2023-02-26T13:24:48.816Z,13.78
2023-02-26T13:27:17.399Z,13.79
2023-02-26T13:29:53.153Z,13.85
2023-02-26T13:32:25.099Z,13.96
2023-02-26T13:34:58.689Z,13.93
2023-02-26T13:37:35.307Z,14.01
2023-02-26T13:40:21.646Z,14.05
2023-02-26T13:43:00.600Z,13.91
2023-02-26T13:46:04.059Z,13.89
2023-02-26T13:48:46.017Z,13.88
2023-02-26T13:51:35.018Z,13.90
2023-02-26T13:54:08.940Z,13.83
2023-02-26T13:56:35.816Z,13.87
2023-02-26T13:59:03.921Z,13.84
2023-02-26T14:01:50.607Z,13.87
2023-02-26T14:04:22.277Z,13.86
2023-02-26T14:06:59.208Z,13.82
2023-02-26T14:09:28.864Z,13.80
2023-02-26T14:11:55.414Z,13.77
2023-02-26T14:14:22.271Z,13.77
2023-02-26T14:16:53.605Z,13.81
2023-02-26T14:19:26.320Z,13.78
2023-02-26T14:22:00.710Z,13.78
2023-02-26T14:24:38.514Z,13.76
2023-02-26T14:27:11.142Z,13.74
2023-02-26T14:30:10.090Z,13.75
2023-02-26T14:32:48.782Z,13.70
2023-02-26T14:35:35.911Z,13.75
2023-02-26T14:38:07.900Z,13.81
2023-02-26T14:41:13.241Z,13.79
2023-02-26T14:43:41.488Z,13.80
2023-02-26T14:46:10.354Z,13.81
2023-02-26T14:48:38.307Z,13.93
2023-02-26T14:51:26.993Z,14.08
2023-02-26T14:54:00.228Z,14.14
2023-02-26T15:03:03.282Z,14.25
2023-02-26T15:05:38.778Z,14.16
2023-02-26T15:20:42.325Z,14.08
2023-02-26T15:23:43.479Z,14.01
2023-02-26T15:26:21.101Z,14.00
2023-02-26T15:28:49.191Z,14.00
2023-02-26T15:31:19.144Z,13.99
2023-02-26T15:33:49.545Z,14.02
2023-02-26T15:36:21.722Z,14.02
2023-02-26T15:38:53.602Z,14.10
2023-02-26T15:41:23.490Z,14.06
2023-02-26T15:43:55.661Z,14.04
2023-02-26T15:46:37.903Z,14.03
2023-02-26T15:49:15.788Z,13.97
2023-02-26T15:51:44.963Z,14.03
2023-02-26T15:54:17.864Z,13.95
2023-02-26T15:56:44.704Z,13.92
2023-02-26T15:59:17.209Z,13.87
2023-02-26T16:01:45.207Z,13.85
2023-02-26T16:04:15.757Z,13.89
2023-02-26T16:06:54.367Z,13.89
2023-02-26T16:09:30.943Z,13.89
2023-02-26T16:12:07.883Z,13.83
2023-02-26T16:14:38.626Z,13.84
2023-02-26T16:17:08.054Z,13.85
2023-02-26T16:19:41.864Z,13.77
2023-02-26T16:22:19.534Z,13.85
2023-02-26T16:24:53.581Z,13.86
2023-02-26T16:27:21.206Z,13.85
2023-02-26T16:29:52.897Z,13.85
2023-02-26T16:32:20.303Z,13.87
2023-02-26T16:34:53.396Z,13.89
2023-02-26T16:37:34.403Z,13.87
2023-02-26T16:40:21.063Z,13.89
2023-02-26T16:42:50.766Z,13.86
2023-02-26T16:45:49.430Z,13.92
2023-02-26T16:48:22.226Z,13.97
2023-02-26T16:51:06.295Z,13.89
2023-02-26T16:53:36.668Z,13.91
2023-02-26T16:56:04.950Z,13.95
2023-02-26T16:58:32.938Z,13.87
2023-02-26T17:01:08.896Z,13.91
2023-02-26T17:03:37.879Z,13.89
2023-02-26T17:06:16.610Z,13.90
2023-02-26T17:08:46.489Z,13.95
2023-02-26T17:11:48.856Z,13.96
2023-02-26T17:14:22.551Z,14.02
2023-02-26T17:16:50.467Z,14.19
2023-02-26T17:19:18.305Z,14.15
2023-02-26T17:21:54.175Z,14.18
2023-02-26T17:24:26.747Z,14.18
2023-02-26T17:27:12.141Z,14.27
2023-02-26T17:29:43.985Z,14.35
2023-02-26T17:32:38.575Z,14.42
2023-02-26T17:35:06.293Z,14.45
2023-02-26T17:37:35.149Z,14.43
2023-02-26T17:40:03.872Z,14.52
2023-02-26T17:42:30.553Z,14.49
2023-02-26T17:44:57.481Z,14.37
2023-02-26T17:47:26.272Z,14.28
2023-02-26T17:49:54.168Z,14.27
2023-02-26T17:52:21.111Z,14.28
2023-02-26T17:54:48.076Z,14.23
2023-02-26T17:57:17.650Z,14.24
2023-02-26T17:59:44.564Z,14.26
2023-02-26T18:02:23.251Z,14.20
2023-02-26T18:04:50.028Z,14.15
2023-02-26T18:07:18.043Z,14.12
2023-02-26T18:09:46.415Z,14.13
2023-02-26T18:12:23.139Z,14.06
2023-02-26T18:14:50.325Z,14.12
2023-02-26T18:17:25.261Z,14.06
2023-02-26T18:19:52.110Z,14.04
2023-02-26T18:22:24.052Z,14.03
2023-02-26T18:24:51.614Z,14.03
2023-02-26T18:27:26.213Z,14.02
2023-02-26T18:29:54.035Z,14.04
2023-02-26T18:32:23.826Z,14.01
2023-02-26T18:34:51.240Z,13.96
2023-02-26T18:37:22.300Z,13.94
2023-02-26T18:39:49.156Z,13.90
2023-02-26T18:42:24.800Z,13.92
2023-02-26T18:44:52.955Z,13.90
2023-02-26T18:47:21.443Z,13.95
2023-02-26T18:49:50.040Z,13.95
2023-02-26T18:52:17.026Z,13.95
2023-02-26T18:54:43.730Z,13.92
2023-02-26T18:57:10.684Z,13.93
2023-02-26T18:59:37.406Z,13.96
2023-02-26T19:02:06.064Z,13.92
2023-02-26T19:04:33.851Z,13.94
2023-02-26T19:07:00.767Z,13.95
2023-02-26T19:09:28.848Z,13.92
2023-02-26T19:11:58.632Z,13.96
2023-02-26T19:14:25.727Z,13.94
2023-02-26T19:16:52.628Z,14.03
2023-02-26T19:19:19.392Z,13.92
2023-02-26T19:21:46.190Z,13.91
2023-02-26T19:24:13.926Z,13.93
2023-02-26T19:26:42.090Z,13.92
2023-02-26T19:29:11.627Z,13.96
2023-02-26T19:31:38.326Z,13.94
2023-02-26T19:34:05.170Z,13.99
2023-02-26T19:36:33.675Z,13.93
2023-02-26T19:39:01.677Z,13.98
2023-02-26T19:41:28.712Z,13.95
2023-02-26T19:43:55.970Z,13.99
2023-02-26T19:46:23.247Z,13.96
2023-02-26T19:48:50.776Z,13.96
2023-02-26T19:51:18.736Z,13.95
2023-02-26T19:53:45.375Z,13.98
2023-02-26T19:56:12.612Z,13.95
2023-02-26T19:58:39.472Z,14.00
2023-02-26T20:01:06.768Z,13.91
2023-02-26T20:03:33.688Z,13.96
2023-02-26T20:06:00.923Z,13.90
2023-02-26T20:08:29.583Z,13.93
2023-02-26T20:10:58.886Z,13.89
2023-02-26T20:13:29.834Z,13.86
2023-02-26T20:16:00.830Z,13.89
2023-02-26T20:18:30.805Z,13.86
2023-02-26T20:20:59.892Z,13.95
2023-02-26T20:23:27.200Z,13.89
2023-02-26T20:25:58.211Z,13.93
2023-02-26T20:28:25.663Z,13.94
2023-02-26T20:30:53.048Z,13.86
2023-02-26T20:33:21.103Z,13.85
2023-02-26T20:35:48.216Z,13.94
2023-02-26T20:38:17.683Z,13.91
2023-02-26T20:40:46.206Z,13.93
2023-02-26T20:43:13.938Z,13.85
2023-02-26T20:45:41.914Z,13.87
2023-02-26T20:48:09.988Z,14.03
2023-02-26T20:50:37.331Z,13.96
2023-02-26T20:53:05.284Z,14.19
2023-02-26T20:55:32.222Z,14.26
2023-02-26T20:57:58.995Z,14.33
2023-02-26T21:00:26.058Z,14.30
2023-02-26T21:02:52.750Z,14.30
2023-02-26T21:05:19.840Z,14.24
2023-02-26T21:07:46.799Z,14.04
2023-02-26T21:10:16.570Z,14.12
2023-02-26T21:12:44.021Z,14.00
2023-02-26T21:15:12.303Z,13.99
2023-02-26T21:17:41.256Z,14.03
2023-02-26T21:20:10.289Z,13.87
2023-02-26T21:22:36.970Z,13.71
2023-02-26T21:25:08.365Z,13.61
2023-02-26T21:27:36.651Z,13.52
2023-02-26T21:30:08.080Z,13.47
2023-02-26T21:32:35.272Z,13.40
2023-02-26T21:35:02.137Z,13.34
2023-02-26T21:37:29.375Z,13.29
2023-02-26T21:39:56.431Z,13.21
2023-02-26T21:42:23.646Z,13.18
2023-02-26T21:44:50.455Z,13.13
2023-02-26T21:47:17.191Z,13.06
2023-02-26T21:49:44.092Z,13.00
2023-02-26T21:52:12.248Z,12.96
2023-02-26T21:54:39.288Z,12.91
2023-02-26T21:57:06.181Z,12.85
2023-02-26T21:59:33.635Z,12.81
2023-02-26T22:02:00.594Z,12.79
2023-02-26T22:04:27.525Z,12.74
2023-02-26T22:06:54.263Z,12.69
2023-02-26T22:09:21.388Z,12.66
2023-02-26T22:11:48.227Z,12.62
2023-02-26T22:14:15.692Z,12.60
2023-02-26T22:16:42.346Z,12.55
2023-02-26T22:19:09.157Z,12.55
2023-02-26T22:21:35.820Z,12.51
2023-02-26T22:24:03.803Z,12.50
2023-02-26T22:26:30.928Z,12.47
2023-02-26T22:29:00.130Z,12.41
2023-02-26T22:31:31.903Z,12.40
2023-02-26T22:33:59.709Z,12.37
2023-02-26T22:36:27.672Z,12.30
2023-02-26T22:38:54.662Z,12.29
2023-02-26T22:41:21.492Z,12.24
2023-02-26T22:43:48.802Z,12.18
2023-02-26T22:46:17.070Z,12.16
2023-02-26T22:48:44.301Z,12.19
2023-02-26T22:51:10.915Z,12.14
2023-02-26T22:53:37.801Z,12.11
2023-02-26T22:56:04.794Z,12.10
2023-02-26T22:58:31.454Z,12.08
2023-02-26T23:01:00.121Z,12.05
2023-02-26T23:03:27.033Z,12.02
2023-02-26T23:05:53.711Z,12.00
2023-02-26T23:08:20.493Z,11.96
2023-02-26T23:10:47.143Z,11.96
2023-02-26T23:13:14.638Z,11.96
2023-02-26T23:15:41.469Z,11.94
2023-02-26T23:18:08.206Z,11.89
2023-02-26T23:20:34.999Z,11.90
2023-02-26T23:23:01.971Z,11.88
2023-02-26T23:25:28.874Z,11.85
2023-02-26T23:27:55.672Z,11.82
2023-02-26T23:30:22.822Z,11.77
2023-02-26T23:32:50.317Z,11.76
2023-02-26T23:35:17.401Z,11.71
2023-02-26T23:37:44.196Z,11.73
2023-02-26T23:40:14.548Z,11.69
2023-02-26T23:42:42.328Z,11.65
2023-02-26T23:45:10.512Z,11.67
2023-02-26T23:47:38.030Z,11.62
2023-02-26T23:50:06.766Z,11.63
2023-02-26T23:52:34.407Z,11.63
2023-02-26T23:55:02.507Z,11.58
2023-02-26T23:57:29.658Z,11.55
2023-02-26T23:59:56.649Z,11.56
